sensor_id;sensor_type;location;lat;lon;timestamp;temperature;humidity
17437;DHT22;73152;52.198;5.422;2024-01-30T00:00:59;20.60;45.70
17437;DHT22;73152;52.198;5.422;2024-01-30T00:03:28;20.60;45.70
17437;DHT22;73152;52.198;5.422;2024-01-30T00:05:57;20.70;45.70
17437;DHT22;73152;52.198;5.422;2024-01-30T00:08:26;20.60;45.70
17437;DHT22;73152;52.198;5.422;2024-01-30T00:10:55;20.70;45.70
17437;DHT22;73152;52.198;5.422;2024-01-30T00:13:24;20.60;45.70
17437;DHT22;73152;52.198;5.422;2024-01-30T00:15:55;20.60;45.70
17437;DHT22;73152;52.198;5.422;2024-01-30T00:18:24;20.60;45.70
17437;DHT22;73152;52.198;5.422;2024-01-30T00:20:53;20.60;45.70
17437;DHT22;73152;52.198;5.422;2024-01-30T00:23:22;20.60;45.70
17437;DHT22;73152;52.198;5.422;2024-01-30T00:25:51;20.60;45.70
17437;DHT22;73152;52.198;5.422;2024-01-30T00:28:20;20.60;45.70
17437;DHT22;73152;52.198;5.422;2024-01-30T00:30:48;20.60;45.70
17437;DHT22;73152;52.198;5.422;2024-01-30T00:33:20;20.60;45.70
17437;DHT22;73152;52.198;5.422;2024-01-30T00:35:50;20.60;45.70
17437;DHT22;73152;52.198;5.422;2024-01-30T00:38:19;20.60;45.70
17437;DHT22;73152;52.198;5.422;2024-01-30T00:40:48;20.60;45.70
17437;DHT22;73152;52.198;5.422;2024-01-30T00:43:17;20.60;45.70
17437;DHT22;73152;52.198;5.422;2024-01-30T00:45:46;20.60;45.70
17437;DHT22;73152;52.198;5.422;2024-01-30T00:48:20;20.60;45.70
17437;DHT22;73152;52.198;5.422;2024-01-30T00:50:49;20.60;45.70
17437;DHT22;73152;52.198;5.422;2024-01-30T00:53:18;20.60;45.70
17437;DHT22;73152;52.198;5.422;2024-01-30T00:55:47;20.60;45.70
17437;DHT22;73152;52.198;5.422;2024-01-30T00:58:16;20.60;45.70
17437;DHT22;73152;52.198;5.422;2024-01-30T01:00:45;20.60;45.70
17437;DHT22;73152;52.198;5.422;2024-01-30T01:03:14;20.60;45.70
17437;DHT22;73152;52.198;5.422;2024-01-30T01:05:45;20.60;45.60
17437;DHT22;73152;52.198;5.422;2024-01-30T01:08:14;20.60;45.60
17437;DHT22;73152;52.198;5.422;2024-01-30T01:10:43;20.60;45.60
17437;DHT22;73152;52.198;5.422;2024-01-30T01:13:12;20.60;45.60
17437;DHT22;73152;52.198;5.422;2024-01-30T01:15:43;20.60;45.60
17437;DHT22;73152;52.198;5.422;2024-01-30T01:18:11;20.60;45.60
17437;DHT22;73152;52.198;5.422;2024-01-30T01:20:40;20.60;45.60
17437;DHT22;73152;52.198;5.422;2024-01-30T01:23:12;20.60;45.60
17437;DHT22;73152;52.198;5.422;2024-01-30T01:25:41;20.60;45.60
17437;DHT22;73152;52.198;5.422;2024-01-30T01:28:10;20.60;45.60
17437;DHT22;73152;52.198;5.422;2024-01-30T01:30:39;20.60;45.60
17437;DHT22;73152;52.198;5.422;2024-01-30T01:33:08;20.50;45.60
17437;DHT22;73152;52.198;5.422;2024-01-30T01:35:39;20.60;45.60
17437;DHT22;73152;52.198;5.422;2024-01-30T01:38:08;20.60;45.50
17437;DHT22;73152;52.198;5.422;2024-01-30T01:40:40;20.60;45.50
17437;DHT22;73152;52.198;5.422;2024-01-30T01:43:09;20.60;45.50
17437;DHT22;73152;52.198;5.422;2024-01-30T01:45:38;20.60;45.50
17437;DHT22;73152;52.198;5.422;2024-01-30T01:48:07;20.60;45.50
17437;DHT22;73152;52.198;5.422;2024-01-30T01:50:37;20.60;45.50
17437;DHT22;73152;52.198;5.422;2024-01-30T01:53:08;20.60;45.50
17437;DHT22;73152;52.198;5.422;2024-01-30T01:55:40;20.60;45.50
17437;DHT22;73152;52.198;5.422;2024-01-30T01:58:09;20.60;45.40
17437;DHT22;73152;52.198;5.422;2024-01-30T02:00:39;20.60;45.40
17437;DHT22;73152;52.198;5.422;2024-01-30T02:03:10;20.60;45.40
17437;DHT22;73152;52.198;5.422;2024-01-30T02:05:41;20.60;45.40
17437;DHT22;73152;52.198;5.422;2024-01-30T02:08:10;20.60;45.40
17437;DHT22;73152;52.198;5.422;2024-01-30T02:10:42;20.60;45.40
17437;DHT22;73152;52.198;5.422;2024-01-30T02:13:11;20.60;45.40
17437;DHT22;73152;52.198;5.422;2024-01-30T02:15:40;20.60;45.40
17437;DHT22;73152;52.198;5.422;2024-01-30T02:18:08;20.60;45.40
17437;DHT22;73152;52.198;5.422;2024-01-30T02:20:37;20.60;45.40
17437;DHT22;73152;52.198;5.422;2024-01-30T02:23:10;20.60;45.40
17437;DHT22;73152;52.198;5.422;2024-01-30T02:25:41;20.60;45.40
17437;DHT22;73152;52.198;5.422;2024-01-30T02:28:11;20.60;45.40
17437;DHT22;73152;52.198;5.422;2024-01-30T02:30:40;20.50;45.40
17437;DHT22;73152;52.198;5.422;2024-01-30T02:33:11;20.60;45.40
17437;DHT22;73152;52.198;5.422;2024-01-30T02:35:40;20.60;45.40
17437;DHT22;73152;52.198;5.422;2024-01-30T02:38:12;20.50;45.50
17437;DHT22;73152;52.198;5.422;2024-01-30T02:40:41;20.60;45.50
17437;DHT22;73152;52.198;5.422;2024-01-30T02:43:10;20.60;45.40
17437;DHT22;73152;52.198;5.422;2024-01-30T02:45:39;20.60;45.50
17437;DHT22;73152;52.198;5.422;2024-01-30T02:48:08;20.50;45.50
17437;DHT22;73152;52.198;5.422;2024-01-30T02:50:37;20.60;45.40
17437;DHT22;73152;52.198;5.422;2024-01-30T02:53:06;20.50;45.40
17437;DHT22;73152;52.198;5.422;2024-01-30T02:55:37;20.50;45.40
17437;DHT22;73152;52.198;5.422;2024-01-30T02:58:06;20.60;45.40
17437;DHT22;73152;52.198;5.422;2024-01-30T03:00:35;20.50;45.40
17437;DHT22;73152;52.198;5.422;2024-01-30T03:03:04;20.50;45.40
17437;DHT22;73152;52.198;5.422;2024-01-30T03:05:33;20.50;45.40
17437;DHT22;73152;52.198;5.422;2024-01-30T03:08:03;20.50;45.40
17437;DHT22;73152;52.198;5.422;2024-01-30T03:10:33;20.50;45.40
17437;DHT22;73152;52.198;5.422;2024-01-30T03:13:04;20.60;45.40
17437;DHT22;73152;52.198;5.422;2024-01-30T03:15:33;20.50;45.40
17437;DHT22;73152;52.198;5.422;2024-01-30T03:18:02;20.50;45.40
17437;DHT22;73152;52.198;5.422;2024-01-30T03:20:32;20.50;45.40
17437;DHT22;73152;52.198;5.422;2024-01-30T03:23:01;20.50;45.40
17437;DHT22;73152;52.198;5.422;2024-01-30T03:25:30;20.50;45.40
17437;DHT22;73152;52.198;5.422;2024-01-30T03:27:58;20.50;45.40
17437;DHT22;73152;52.198;5.422;2024-01-30T03:30:30;20.60;45.40
17437;DHT22;73152;52.198;5.422;2024-01-30T03:32:59;20.50;45.30
17437;DHT22;73152;52.198;5.422;2024-01-30T03:35:28;20.60;45.40
17437;DHT22;73152;52.198;5.422;2024-01-30T03:37:56;20.50;45.40
17437;DHT22;73152;52.198;5.422;2024-01-30T03:40:25;20.50;45.40
17437;DHT22;73152;52.198;5.422;2024-01-30T03:42:54;20.50;45.30
17437;DHT22;73152;52.198;5.422;2024-01-30T03:45:25;20.50;45.30
17437;DHT22;73152;52.198;5.422;2024-01-30T03:47:57;20.50;45.40
17437;DHT22;73152;52.198;5.422;2024-01-30T03:50:26;20.50;45.40
17437;DHT22;73152;52.198;5.422;2024-01-30T03:52:55;20.50;45.30
17437;DHT22;73152;52.198;5.422;2024-01-30T03:55:24;20.50;45.30
17437;DHT22;73152;52.198;5.422;2024-01-30T03:57:52;20.50;45.40
17437;DHT22;73152;52.198;5.422;2024-01-30T04:00:21;20.50;45.30
17437;DHT22;73152;52.198;5.422;2024-01-30T04:02:50;20.50;45.30
17437;DHT22;73152;52.198;5.422;2024-01-30T04:05:22;20.50;45.40
17437;DHT22;73152;52.198;5.422;2024-01-30T04:07:50;20.50;45.30
17437;DHT22;73152;52.198;5.422;2024-01-30T04:10:19;20.50;45.40
17437;DHT22;73152;52.198;5.422;2024-01-30T04:12:48;20.50;45.30
17437;DHT22;73152;52.198;5.422;2024-01-30T04:15:17;20.50;45.30
17437;DHT22;73152;52.198;5.422;2024-01-30T04:17:46;20.50;45.30
17437;DHT22;73152;52.198;5.422;2024-01-30T04:20:15;20.50;45.30
17437;DHT22;73152;52.198;5.422;2024-01-30T04:22:47;20.50;45.30
17437;DHT22;73152;52.198;5.422;2024-01-30T04:25:16;20.50;45.20
17437;DHT22;73152;52.198;5.422;2024-01-30T04:27:45;20.50;45.30
17437;DHT22;73152;52.198;5.422;2024-01-30T04:30:14;20.50;45.20
17437;DHT22;73152;52.198;5.422;2024-01-30T04:32:43;20.50;45.20
17437;DHT22;73152;52.198;5.422;2024-01-30T04:35:12;20.50;45.20
17437;DHT22;73152;52.198;5.422;2024-01-30T04:37:41;20.50;45.20
17437;DHT22;73152;52.198;5.422;2024-01-30T04:40:13;20.50;45.10
17437;DHT22;73152;52.198;5.422;2024-01-30T04:42:41;20.50;45.10
17437;DHT22;73152;52.198;5.422;2024-01-30T04:45:10;20.50;45.20
17437;DHT22;73152;52.198;5.422;2024-01-30T04:47:40;20.50;45.10
17437;DHT22;73152;52.198;5.422;2024-01-30T04:50:09;20.50;45.10
17437;DHT22;73152;52.198;5.422;2024-01-30T04:52:38;20.50;45.00
17437;DHT22;73152;52.198;5.422;2024-01-30T04:55:08;20.50;45.00
17437;DHT22;73152;52.198;5.422;2024-01-30T04:57:39;20.50;45.00
17437;DHT22;73152;52.198;5.422;2024-01-30T05:00:09;20.50;45.00
17437;DHT22;73152;52.198;5.422;2024-01-30T05:02:39;20.50;45.00
17437;DHT22;73152;52.198;5.422;2024-01-30T05:05:08;20.50;45.00
17437;DHT22;73152;52.198;5.422;2024-01-30T05:07:37;20.50;45.00
17437;DHT22;73152;52.198;5.422;2024-01-30T05:10:07;20.50;45.00
17437;DHT22;73152;52.198;5.422;2024-01-30T05:12:40;20.50;44.90
17437;DHT22;73152;52.198;5.422;2024-01-30T05:15:09;20.50;44.90
17437;DHT22;73152;52.198;5.422;2024-01-30T05:17:38;20.50;45.00
17437;DHT22;73152;52.198;5.422;2024-01-30T05:20:08;20.50;44.90
17437;DHT22;73152;52.198;5.422;2024-01-30T05:22:38;20.50;44.90
17437;DHT22;73152;52.198;5.422;2024-01-30T05:25:10;20.50;44.90
17437;DHT22;73152;52.198;5.422;2024-01-30T05:27:42;20.50;45.00
17437;DHT22;73152;52.198;5.422;2024-01-30T05:30:12;20.50;45.00
17437;DHT22;73152;52.198;5.422;2024-01-30T05:32:41;20.50;45.00
17437;DHT22;73152;52.198;5.422;2024-01-30T05:35:10;20.50;45.00
17437;DHT22;73152;52.198;5.422;2024-01-30T05:37:39;20.50;45.00
17437;DHT22;73152;52.198;5.422;2024-01-30T05:40:09;20.50;45.00
17437;DHT22;73152;52.198;5.422;2024-01-30T05:42:38;20.50;44.90
17437;DHT22;73152;52.198;5.422;2024-01-30T05:45:10;20.50;45.00
17437;DHT22;73152;52.198;5.422;2024-01-30T05:47:39;20.50;45.00
17437;DHT22;73152;52.198;5.422;2024-01-30T05:50:08;20.50;45.00
17437;DHT22;73152;52.198;5.422;2024-01-30T05:52:37;20.50;45.00
17437;DHT22;73152;52.198;5.422;2024-01-30T05:55:06;20.50;45.00
17437;DHT22;73152;52.198;5.422;2024-01-30T05:57:37;20.50;45.00
17437;DHT22;73152;52.198;5.422;2024-01-30T06:00:09;20.50;45.00
17437;DHT22;73152;52.198;5.422;2024-01-30T06:02:38;20.60;45.00
17437;DHT22;73152;52.198;5.422;2024-01-30T06:05:08;20.50;45.00
17437;DHT22;73152;52.198;5.422;2024-01-30T06:07:37;20.50;45.00
17437;DHT22;73152;52.198;5.422;2024-01-30T06:10:08;20.60;45.00
17437;DHT22;73152;52.198;5.422;2024-01-30T06:12:37;20.50;45.10
17437;DHT22;73152;52.198;5.422;2024-01-30T06:15:09;20.50;45.10
17437;DHT22;73152;52.198;5.422;2024-01-30T06:17:38;20.50;45.00
17437;DHT22;73152;52.198;5.422;2024-01-30T06:20:07;20.50;45.00
17437;DHT22;73152;52.198;5.422;2024-01-30T06:22:36;20.60;45.10
17437;DHT22;73152;52.198;5.422;2024-01-30T06:25:06;20.50;45.10
17437;DHT22;73152;52.198;5.422;2024-01-30T06:27:37;20.50;45.10
17437;DHT22;73152;52.198;5.422;2024-01-30T06:30:10;20.50;45.00
17437;DHT22;73152;52.198;5.422;2024-01-30T06:32:40;20.50;45.00
17437;DHT22;73152;52.198;5.422;2024-01-30T06:35:09;20.60;45.10
17437;DHT22;73152;52.198;5.422;2024-01-30T06:37:38;20.50;45.10
17437;DHT22;73152;52.198;5.422;2024-01-30T06:40:08;20.50;45.00
17437;DHT22;73152;52.198;5.422;2024-01-30T06:42:38;20.60;45.00
17437;DHT22;73152;52.198;5.422;2024-01-30T06:45:10;20.60;45.00
17437;DHT22;73152;52.198;5.422;2024-01-30T06:47:38;20.60;45.00
17437;DHT22;73152;52.198;5.422;2024-01-30T06:50:08;20.60;45.00
17437;DHT22;73152;52.198;5.422;2024-01-30T06:52:37;20.60;45.10
17437;DHT22;73152;52.198;5.422;2024-01-30T06:55:08;20.60;45.00
17437;DHT22;73152;52.198;5.422;2024-01-30T06:57:37;20.60;45.10
17437;DHT22;73152;52.198;5.422;2024-01-30T07:00:10;20.60;45.00
17437;DHT22;73152;52.198;5.422;2024-01-30T07:02:41;20.60;45.10
17437;DHT22;73152;52.198;5.422;2024-01-30T07:05:10;20.60;45.10
17437;DHT22;73152;52.198;5.422;2024-01-30T07:07:39;20.60;45.00
17437;DHT22;73152;52.198;5.422;2024-01-30T07:10:08;20.60;45.10
17437;DHT22;73152;52.198;5.422;2024-01-30T07:12:37;20.60;45.10
17437;DHT22;73152;52.198;5.422;2024-01-30T07:15:09;20.60;45.10
17437;DHT22;73152;52.198;5.422;2024-01-30T07:17:42;20.60;45.10
17437;DHT22;73152;52.198;5.422;2024-01-30T07:20:11;20.60;45.10
17437;DHT22;73152;52.198;5.422;2024-01-30T07:22:40;20.60;45.10
17437;DHT22;73152;52.198;5.422;2024-01-30T07:25:09;20.60;45.10
17437;DHT22;73152;52.198;5.422;2024-01-30T07:27:38;20.60;45.10
17437;DHT22;73152;52.198;5.422;2024-01-30T07:30:10;20.60;45.10
17437;DHT22;73152;52.198;5.422;2024-01-30T07:32:39;20.60;45.10
17437;DHT22;73152;52.198;5.422;2024-01-30T07:35:08;20.60;45.10
17437;DHT22;73152;52.198;5.422;2024-01-30T07:37:37;20.60;45.10
17437;DHT22;73152;52.198;5.422;2024-01-30T07:40:07;20.60;45.10
17437;DHT22;73152;52.198;5.422;2024-01-30T07:42:36;20.60;45.10
17437;DHT22;73152;52.198;5.422;2024-01-30T07:45:06;20.60;44.90
17437;DHT22;73152;52.198;5.422;2024-01-30T07:47:37;20.60;45.00
17437;DHT22;73152;52.198;5.422;2024-01-30T07:50:08;20.60;45.10
17437;DHT22;73152;52.198;5.422;2024-01-30T07:52:38;20.60;45.10
17437;DHT22;73152;52.198;5.422;2024-01-30T07:55:07;20.60;45.10
17437;DHT22;73152;52.198;5.422;2024-01-30T07:57:38;20.60;45.10
17437;DHT22;73152;52.198;5.422;2024-01-30T08:00:12;20.60;45.10
17437;DHT22;73152;52.198;5.422;2024-01-30T08:02:42;20.60;45.00
17437;DHT22;73152;52.198;5.422;2024-01-30T08:05:24;20.60;44.90
17437;DHT22;73152;52.198;5.422;2024-01-30T08:07:53;20.60;45.00
17437;DHT22;73152;52.198;5.422;2024-01-30T08:10:22;20.60;45.00
17437;DHT22;73152;52.198;5.422;2024-01-30T08:12:50;20.60;44.90
17437;DHT22;73152;52.198;5.422;2024-01-30T08:15:22;20.60;44.90
17437;DHT22;73152;52.198;5.422;2024-01-30T08:17:51;20.60;44.90
17437;DHT22;73152;52.198;5.422;2024-01-30T08:20:23;20.60;44.90
17437;DHT22;73152;52.198;5.422;2024-01-30T08:22:52;20.70;44.80
17437;DHT22;73152;52.198;5.422;2024-01-30T08:25:19;20.70;44.80
17437;DHT22;73152;52.198;5.422;2024-01-30T08:27:48;20.60;44.90
17437;DHT22;73152;52.198;5.422;2024-01-30T08:30:18;20.60;45.00
17437;DHT22;73152;52.198;5.422;2024-01-30T08:32:50;20.70;44.90
17437;DHT22;73152;52.198;5.422;2024-01-30T08:35:19;20.70;44.90
17437;DHT22;73152;52.198;5.422;2024-01-30T08:37:48;20.70;44.90
17437;DHT22;73152;52.198;5.422;2024-01-30T08:40:17;20.70;44.80
17437;DHT22;73152;52.198;5.422;2024-01-30T08:42:46;20.70;44.80
17437;DHT22;73152;52.198;5.422;2024-01-30T08:45:15;20.70;44.80
17437;DHT22;73152;52.198;5.422;2024-01-30T08:47:44;20.70;44.80
17437;DHT22;73152;52.198;5.422;2024-01-30T08:50:16;20.70;44.90
17437;DHT22;73152;52.198;5.422;2024-01-30T08:52:45;20.80;44.80
17437;DHT22;73152;52.198;5.422;2024-01-30T08:55:14;20.70;44.80
17437;DHT22;73152;52.198;5.422;2024-01-30T08:57:43;20.70;45.00
17437;DHT22;73152;52.198;5.422;2024-01-30T09:00:13;20.70;44.90
17437;DHT22;73152;52.198;5.422;2024-01-30T09:02:43;20.70;44.90
17437;DHT22;73152;52.198;5.422;2024-01-30T09:05:12;20.70;45.00
17437;DHT22;73152;52.198;5.422;2024-01-30T09:07:43;20.70;44.90
17437;DHT22;73152;52.198;5.422;2024-01-30T09:10:12;20.80;44.90
17437;DHT22;73152;52.198;5.422;2024-01-30T09:12:41;20.90;44.80
17437;DHT22;73152;52.198;5.422;2024-01-30T09:15:10;20.80;44.80
17437;DHT22;73152;52.198;5.422;2024-01-30T09:17:37;20.80;44.80
17437;DHT22;73152;52.198;5.422;2024-01-30T09:20:07;20.90;44.90
17437;DHT22;73152;52.198;5.422;2024-01-30T09:22:37;20.80;44.90
17437;DHT22;73152;52.198;5.422;2024-01-30T09:25:09;20.90;44.80
17437;DHT22;73152;52.198;5.422;2024-01-30T09:27:38;20.90;44.80
17437;DHT22;73152;52.198;5.422;2024-01-30T09:30:08;20.90;44.80
17437;DHT22;73152;52.198;5.422;2024-01-30T09:32:39;20.80;44.90
17437;DHT22;73152;52.198;5.422;2024-01-30T09:35:09;20.80;44.90
17437;DHT22;73152;52.198;5.422;2024-01-30T09:37:38;20.90;44.90
17437;DHT22;73152;52.198;5.422;2024-01-30T09:40:10;20.90;44.90
17437;DHT22;73152;52.198;5.422;2024-01-30T09:42:40;20.80;44.90
17437;DHT22;73152;52.198;5.422;2024-01-30T09:45:14;20.80;45.00
17437;DHT22;73152;52.198;5.422;2024-01-30T09:47:44;20.80;45.00
17437;DHT22;73152;52.198;5.422;2024-01-30T09:50:15;20.70;45.00
17437;DHT22;73152;52.198;5.422;2024-01-30T09:52:44;20.80;45.00
17437;DHT22;73152;52.198;5.422;2024-01-30T09:55:17;20.80;45.00
17437;DHT22;73152;52.198;5.422;2024-01-30T09:57:46;20.80;45.00
17437;DHT22;73152;52.198;5.422;2024-01-30T10:00:15;20.70;45.10
17437;DHT22;73152;52.198;5.422;2024-01-30T10:02:45;20.70;45.10
17437;DHT22;73152;52.198;5.422;2024-01-30T10:05:15;20.70;45.20
17437;DHT22;73152;52.198;5.422;2024-01-30T10:07:53;20.70;45.10
17437;DHT22;73152;52.198;5.422;2024-01-30T10:10:25;20.70;45.10
17437;DHT22;73152;52.198;5.422;2024-01-30T10:12:54;20.70;45.20
17437;DHT22;73152;52.198;5.422;2024-01-30T10:15:23;20.80;45.00
17437;DHT22;73152;52.198;5.422;2024-01-30T10:17:54;20.80;45.00
17437;DHT22;73152;52.198;5.422;2024-01-30T10:20:25;20.80;45.00
17437;DHT22;73152;52.198;5.422;2024-01-30T10:22:54;20.80;45.00
17437;DHT22;73152;52.198;5.422;2024-01-30T10:25:25;20.80;45.00
17437;DHT22;73152;52.198;5.422;2024-01-30T10:27:57;20.90;45.00
17437;DHT22;73152;52.198;5.422;2024-01-30T10:30:27;20.90;44.90
17437;DHT22;73152;52.198;5.422;2024-01-30T10:32:56;20.90;44.90
17437;DHT22;73152;52.198;5.422;2024-01-30T10:35:25;20.90;44.90
17437;DHT22;73152;52.198;5.422;2024-01-30T10:37:57;21.00;44.70
17437;DHT22;73152;52.198;5.422;2024-01-30T10:40:29;20.90;44.80
17437;DHT22;73152;52.198;5.422;2024-01-30T10:43:01;21.00;44.70
17437;DHT22;73152;52.198;5.422;2024-01-30T10:45:32;21.10;44.50
17437;DHT22;73152;52.198;5.422;2024-01-30T10:48:05;21.00;44.70
17437;DHT22;73152;52.198;5.422;2024-01-30T10:50:39;20.90;44.80
17437;DHT22;73152;52.198;5.422;2024-01-30T10:53:10;21.00;44.70
17437;DHT22;73152;52.198;5.422;2024-01-30T10:55:45;20.90;44.80
17437;DHT22;73152;52.198;5.422;2024-01-30T10:58:15;20.90;44.90
17437;DHT22;73152;52.198;5.422;2024-01-30T11:00:45;20.90;44.90
17437;DHT22;73152;52.198;5.422;2024-01-30T11:03:14;20.90;44.90
17437;DHT22;73152;52.198;5.422;2024-01-30T11:05:43;20.90;44.80
17437;DHT22;73152;52.198;5.422;2024-01-30T11:08:12;20.90;44.90
17437;DHT22;73152;52.198;5.422;2024-01-30T11:10:48;21.00;44.70
17437;DHT22;73152;52.198;5.422;2024-01-30T11:13:19;21.00;44.50
17437;DHT22;73152;52.198;5.422;2024-01-30T11:15:48;21.00;44.60
17437;DHT22;73152;52.198;5.422;2024-01-30T11:18:23;20.90;44.60
17437;DHT22;73152;52.198;5.422;2024-01-30T11:20:52;20.90;44.70
17437;DHT22;73152;52.198;5.422;2024-01-30T11:23:26;20.90;44.70
17437;DHT22;73152;52.198;5.422;2024-01-30T11:25:58;20.90;44.50
17437;DHT22;73152;52.198;5.422;2024-01-30T11:28:32;21.00;44.40
17437;DHT22;73152;52.198;5.422;2024-01-30T11:31:06;20.90;44.50
17437;DHT22;73152;52.198;5.422;2024-01-30T11:33:37;20.90;44.40
17437;DHT22;73152;52.198;5.422;2024-01-30T11:36:06;20.90;44.40
17437;DHT22;73152;52.198;5.422;2024-01-30T11:38:36;21.00;44.20
17437;DHT22;73152;52.198;5.422;2024-01-30T11:41:08;21.00;44.00
17437;DHT22;73152;52.198;5.422;2024-01-30T11:43:37;21.00;43.80
17437;DHT22;73152;52.198;5.422;2024-01-30T11:46:07;20.90;44.00
17437;DHT22;73152;52.198;5.422;2024-01-30T11:48:36;20.90;43.80
17437;DHT22;73152;52.198;5.422;2024-01-30T11:51:08;20.80;44.20
17437;DHT22;73152;52.198;5.422;2024-01-30T11:53:37;20.80;44.10
17437;DHT22;73152;52.198;5.422;2024-01-30T11:56:08;20.80;44.00
17437;DHT22;73152;52.198;5.422;2024-01-30T11:58:37;20.90;43.80
17437;DHT22;73152;52.198;5.422;2024-01-30T12:01:10;20.90;43.80
17437;DHT22;73152;52.198;5.422;2024-01-30T12:03:40;20.90;43.50
17437;DHT22;73152;52.198;5.422;2024-01-30T12:06:08;20.90;43.20
17437;DHT22;73152;52.198;5.422;2024-01-30T12:08:37;20.90;43.40
17437;DHT22;73152;52.198;5.422;2024-01-30T12:11:09;20.90;43.50
17437;DHT22;73152;52.198;5.422;2024-01-30T12:13:38;20.80;43.70
17437;DHT22;73152;52.198;5.422;2024-01-30T12:16:07;20.80;43.70
17437;DHT22;73152;52.198;5.422;2024-01-30T12:18:36;20.80;43.60
17437;DHT22;73152;52.198;5.422;2024-01-30T12:21:05;20.80;43.60
17437;DHT22;73152;52.198;5.422;2024-01-30T12:23:35;20.80;43.50
17437;DHT22;73152;52.198;5.422;2024-01-30T12:26:04;20.80;43.50
17437;DHT22;73152;52.198;5.422;2024-01-30T12:28:36;20.70;43.80
17437;DHT22;73152;52.198;5.422;2024-01-30T12:31:05;20.60;43.90
17437;DHT22;73152;52.198;5.422;2024-01-30T12:33:36;20.60;43.90
17437;DHT22;73152;52.198;5.422;2024-01-30T12:36:05;20.50;44.00
17437;DHT22;73152;52.198;5.422;2024-01-30T12:38:35;20.60;43.90
17437;DHT22;73152;52.198;5.422;2024-01-30T12:41:06;20.60;43.80
17437;DHT22;73152;52.198;5.422;2024-01-30T12:43:38;20.60;43.80
17437;DHT22;73152;52.198;5.422;2024-01-30T12:46:07;20.60;44.20
17437;DHT22;73152;52.198;5.422;2024-01-30T12:48:36;20.70;44.00
17437;DHT22;73152;52.198;5.422;2024-01-30T12:51:05;20.60;44.50
17437;DHT22;73152;52.198;5.422;2024-01-30T12:53:34;20.70;44.60
17437;DHT22;73152;52.198;5.422;2024-01-30T12:56:03;20.70;44.50
17437;DHT22;73152;52.198;5.422;2024-01-30T12:58:32;20.80;44.10
17437;DHT22;73152;52.198;5.422;2024-01-30T13:01:04;20.70;44.30
17437;DHT22;73152;52.198;5.422;2024-01-30T13:03:33;20.80;44.10
17437;DHT22;73152;52.198;5.422;2024-01-30T13:06:02;20.90;44.00
17437;DHT22;73152;52.198;5.422;2024-01-30T13:08:31;20.80;43.90
17437;DHT22;73152;52.198;5.422;2024-01-30T13:11:01;20.80;44.00
17437;DHT22;73152;52.198;5.422;2024-01-30T13:13:30;20.70;44.30
17437;DHT22;73152;52.198;5.422;2024-01-30T13:15:59;20.70;44.30
17437;DHT22;73152;52.198;5.422;2024-01-30T13:18:31;20.70;44.70
17437;DHT22;73152;52.198;5.422;2024-01-30T13:21:00;20.70;44.40
17437;DHT22;73152;52.198;5.422;2024-01-30T13:23:29;20.70;44.70
17437;DHT22;73152;52.198;5.422;2024-01-30T13:25:58;20.70;44.50
17437;DHT22;73152;52.198;5.422;2024-01-30T13:28:27;20.70;44.70
17437;DHT22;73152;52.198;5.422;2024-01-30T13:30:56;20.70;44.70
17437;DHT22;73152;52.198;5.422;2024-01-30T13:33:26;20.70;44.80
17437;DHT22;73152;52.198;5.422;2024-01-30T13:35:57;20.70;44.80
17437;DHT22;73152;52.198;5.422;2024-01-30T13:38:26;20.70;45.10
17437;DHT22;73152;52.198;5.422;2024-01-30T13:40:55;20.70;44.80
17437;DHT22;73152;52.198;5.422;2024-01-30T13:43:24;20.70;45.10
17437;DHT22;73152;52.198;5.422;2024-01-30T13:45:53;20.60;45.00
17437;DHT22;73152;52.198;5.422;2024-01-30T13:48:22;20.60;45.20
17437;DHT22;73152;52.198;5.422;2024-01-30T13:50:51;20.60;45.20
17437;DHT22;73152;52.198;5.422;2024-01-30T13:53:22;20.60;45.50
17437;DHT22;73152;52.198;5.422;2024-01-30T13:55:51;20.60;45.50
17437;DHT22;73152;52.198;5.422;2024-01-30T13:58:20;20.60;45.50
17437;DHT22;73152;52.198;5.422;2024-01-30T14:00:49;20.50;45.60
17437;DHT22;73152;52.198;5.422;2024-01-30T14:03:19;20.50;45.60
17437;DHT22;73152;52.198;5.422;2024-01-30T14:05:48;20.50;45.60
17437;DHT22;73152;52.198;5.422;2024-01-30T14:08:17;20.50;45.90
17437;DHT22;73152;52.198;5.422;2024-01-30T14:10:49;20.50;46.10
17437;DHT22;73152;52.198;5.422;2024-01-30T14:13:18;20.50;46.10
17437;DHT22;73152;52.198;5.422;2024-01-30T14:15:48;20.50;46.20
17437;DHT22;73152;52.198;5.422;2024-01-30T14:18:17;20.50;46.00
17437;DHT22;73152;52.198;5.422;2024-01-30T14:20:46;20.50;46.10
17437;DHT22;73152;52.198;5.422;2024-01-30T14:23:17;20.50;46.00
17437;DHT22;73152;52.198;5.422;2024-01-30T14:25:49;20.50;46.20
17437;DHT22;73152;52.198;5.422;2024-01-30T14:28:19;20.50;46.40
17437;DHT22;73152;52.198;5.422;2024-01-30T14:30:48;20.50;46.00
17437;DHT22;73152;52.198;5.422;2024-01-30T14:33:17;20.60;45.90
17437;DHT22;73152;52.198;5.422;2024-01-30T14:35:45;20.60;46.20
17437;DHT22;73152;52.198;5.422;2024-01-30T14:38:14;20.60;45.80
17437;DHT22;73152;52.198;5.422;2024-01-30T14:40:44;20.60;45.70
17437;DHT22;73152;52.198;5.422;2024-01-30T14:43:16;20.60;46.00
17437;DHT22;73152;52.198;5.422;2024-01-30T14:45:44;20.60;45.70
17437;DHT22;73152;52.198;5.422;2024-01-30T14:48:15;20.60;46.10
17437;DHT22;73152;52.198;5.422;2024-01-30T14:50:44;20.60;45.80
17437;DHT22;73152;52.198;5.422;2024-01-30T14:53:13;20.60;46.00
17437;DHT22;73152;52.198;5.422;2024-01-30T14:55:42;20.60;46.00
17437;DHT22;73152;52.198;5.422;2024-01-30T14:58:10;20.60;46.20
17437;DHT22;73152;52.198;5.422;2024-01-30T15:00:42;20.70;45.90
17437;DHT22;73152;52.198;5.422;2024-01-30T15:03:11;20.70;45.60
17437;DHT22;73152;52.198;5.422;2024-01-30T15:05:40;20.60;46.10
17437;DHT22;73152;52.198;5.422;2024-01-30T15:08:09;20.60;46.10
17437;DHT22;73152;52.198;5.422;2024-01-30T15:10:37;20.80;45.30
17437;DHT22;73152;52.198;5.422;2024-01-30T15:13:06;20.80;45.30
17437;DHT22;73152;52.198;5.422;2024-01-30T15:15:36;20.70;45.70
17437;DHT22;73152;52.198;5.422;2024-01-30T15:18:08;20.70;45.60
17437;DHT22;73152;52.198;5.422;2024-01-30T15:20:37;20.70;45.30
17437;DHT22;73152;52.198;5.422;2024-01-30T15:23:06;20.70;45.40
17437;DHT22;73152;52.198;5.422;2024-01-30T15:25:35;20.70;45.40
17437;DHT22;73152;52.198;5.422;2024-01-30T15:28:04;20.70;45.40
17437;DHT22;73152;52.198;5.422;2024-01-30T15:30:35;20.70;45.50
17437;DHT22;73152;52.198;5.422;2024-01-30T15:33:04;20.60;45.60
17437;DHT22;73152;52.198;5.422;2024-01-30T15:35:36;20.60;45.90
17437;DHT22;73152;52.198;5.422;2024-01-30T15:38:05;20.60;45.90
17437;DHT22;73152;52.198;5.422;2024-01-30T15:40:35;20.60;45.80
17437;DHT22;73152;52.198;5.422;2024-01-30T15:43:04;20.60;45.70
17437;DHT22;73152;52.198;5.422;2024-01-30T15:45:33;20.60;45.60